createdAt,value
2023-02-11T00:01:23.456Z,18.88
2023-02-11T00:03:51.310Z,17.05
2023-02-11T00:06:19.277Z,18.88
2023-02-11T00:08:47.516Z,17.50
2023-02-11T00:11:18.725Z,17.90
2023-02-11T00:13:47.750Z,16.77
2023-02-11T00:16:17.498Z,19.77
2023-02-11T00:18:45.965Z,16.70
2023-02-11T00:21:16.548Z,14.57
2023-02-11T00:23:44.688Z,15.07
2023-02-11T00:26:13.801Z,15.32
2023-02-11T00:28:43.294Z,16.45
2023-02-11T00:31:11.406Z,15.93
2023-02-11T00:33:39.388Z,17.42
2023-02-11T00:36:09.342Z,14.75
2023-02-11T00:38:37.258Z,17.60
2023-02-11T00:41:05.453Z,16.83
2023-02-11T00:43:33.280Z,16.92
2023-02-11T00:46:02.555Z,12.80
2023-02-11T00:48:30.423Z,15.45
2023-02-11T00:50:58.222Z,15.15
2023-02-11T00:53:26.002Z,15.77
2023-02-11T00:55:53.691Z,21.70
2023-02-11T00:58:22.513Z,15.43
2023-02-11T01:00:50.565Z,16.63
2023-02-11T01:03:19.607Z,14.15
2023-02-11T01:05:47.716Z,15.70
2023-02-11T01:08:15.535Z,12.25
2023-02-11T01:10:43.967Z,16.65
2023-02-11T01:13:12.046Z,15.85
2023-02-11T01:15:39.903Z,17.27
2023-02-11T01:18:07.665Z,14.60
2023-02-11T01:20:36.809Z,15.38
2023-02-11T01:23:04.536Z,12.30
2023-02-11T01:25:32.270Z,13.27
2023-02-11T01:28:00.023Z,13.45
2023-02-11T01:30:27.803Z,11.80
2023-02-11T01:32:55.481Z,13.07
2023-02-11T01:35:23.382Z,16.88
2023-02-11T01:37:52.512Z,13.82
2023-02-11T01:40:20.507Z,12.43
2023-02-11T01:42:50.716Z,13.98
2023-02-11T01:45:54.427Z,12.48
2023-02-11T01:48:25.317Z,20.40
2023-02-11T01:50:58.388Z,13.35
2023-02-11T01:53:47.755Z,14.82
2023-02-11T01:56:34.408Z,19.45
2023-02-11T01:59:10.748Z,15.82
2023-02-11T02:01:40.792Z,14.55
2023-02-11T02:04:10.807Z,15.10
2023-02-11T02:06:45.182Z,12.00
2023-02-11T02:09:19.758Z,10.90
2023-02-11T02:11:47.440Z,12.05
2023-02-11T02:14:15.220Z,9.75
2023-02-11T02:16:43.193Z,10.52
2023-02-11T02:19:50.555Z,12.65
2023-02-11T02:22:56.034Z,11.30
2023-02-11T02:25:43.582Z,14.75
2023-02-11T02:31:10.667Z,10.55
2023-02-11T02:33:46.404Z,12.25
2023-02-11T02:36:20.952Z,13.27
2023-02-11T02:38:55.624Z,17.38
2023-02-11T02:41:28.014Z,11.70
2023-02-11T02:43:56.332Z,12.38
2023-02-11T02:46:26.589Z,12.73
2023-02-11T02:48:56.414Z,12.10
2023-02-11T02:51:42.253Z,11.55
2023-02-11T02:54:41.049Z,12.93
2023-02-11T02:57:24.764Z,11.38
2023-02-11T03:00:05.196Z,11.90
2023-02-11T03:02:37.596Z,14.52
2023-02-11T03:05:13.134Z,10.20
2023-02-11T03:07:45.148Z,14.52
2023-02-11T03:10:17.618Z,15.52
2023-02-11T03:12:47.303Z,18.10
2023-02-11T03:15:16.008Z,12.32
2023-02-11T03:17:48.613Z,16.05
2023-02-11T03:20:21.259Z,9.60
2023-02-11T03:22:56.671Z,11.80
2023-02-11T03:25:29.795Z,12.63
2023-02-11T03:28:05.530Z,10.88
2023-02-11T03:30:39.569Z,14.40
2023-02-11T03:33:13.685Z,9.90
2023-02-11T03:35:47.109Z,12.32
2023-02-11T03:38:20.732Z,10.75
2023-02-11T03:40:48.876Z,14.98
2023-02-11T03:43:20.052Z,11.75
2023-02-11T03:45:50.429Z,9.73
2023-02-11T03:48:23.556Z,13.15
2023-02-11T03:50:54.305Z,12.93
2023-02-11T03:53:23.829Z,13.68
2023-02-11T03:55:53.806Z,15.82
2023-02-11T03:58:21.769Z,12.38
2023-02-11T04:00:50.613Z,14.52
2023-02-11T04:03:19.139Z,14.48
2023-02-11T04:05:46.934Z,14.55
2023-02-11T04:08:16.015Z,13.43
2023-02-11T04:10:43.682Z,12.85
2023-02-11T04:13:11.407Z,13.93
2023-02-11T04:15:39.164Z,12.70
2023-02-11T04:18:06.931Z,13.82
2023-02-11T04:20:34.655Z,11.38
2023-02-11T04:23:02.357Z,14.95
2023-02-11T04:25:31.585Z,12.40
2023-02-11T04:27:59.351Z,15.75
2023-02-11T04:30:27.036Z,14.25
2023-02-11T04:32:54.923Z,15.85
2023-02-11T04:35:22.763Z,16.40
2023-02-11T04:37:50.478Z,12.63
2023-02-11T04:40:18.456Z,19.55
2023-02-11T04:42:47.554Z,15.02
2023-02-11T04:45:15.292Z,12.38
2023-02-11T04:47:43.017Z,12.30
2023-02-11T04:50:11.092Z,11.57
2023-02-11T04:52:38.790Z,11.73
2023-02-11T04:55:07.408Z,10.15
2023-02-11T04:57:35.162Z,12.00
2023-02-11T05:00:04.551Z,14.05
2023-02-11T05:02:32.429Z,12.88
2023-02-11T05:05:00.200Z,13.77
2023-02-11T05:07:28.129Z,10.63
2023-02-11T05:09:55.824Z,13.90
2023-02-11T05:12:23.535Z,12.63
2023-02-11T05:14:51.233Z,9.20
2023-02-11T05:17:20.340Z,10.70
2023-02-11T05:19:48.064Z,10.10
2023-02-11T05:22:15.792Z,13.65
2023-02-11T05:24:43.530Z,14.25
2023-02-11T05:27:11.233Z,15.85
2023-02-11T05:29:39.237Z,13.93
2023-02-11T05:32:07.433Z,12.82
2023-02-11T05:34:36.533Z,11.15
2023-02-11T05:37:04.398Z,13.23
2023-02-11T05:39:32.137Z,12.73
2023-02-11T05:41:59.877Z,17.50
2023-02-11T05:44:27.723Z,15.60
2023-02-11T05:46:55.438Z,15.27
2023-02-11T05:49:23.176Z,10.52
2023-02-11T05:51:52.209Z,12.48
2023-02-11T05:54:19.945Z,12.60
2023-02-11T05:56:47.676Z,12.68
2023-02-11T05:59:16.608Z,15.23
2023-02-11T06:01:44.787Z,13.32
2023-02-11T06:04:12.555Z,14.55
2023-02-11T06:06:40.225Z,12.43
2023-02-11T06:09:10.773Z,16.65
2023-02-11T06:11:38.518Z,9.77
2023-02-11T06:14:06.335Z,16.45
2023-02-11T06:16:34.015Z,15.90
2023-02-11T06:19:01.742Z,14.55
2023-02-11T06:21:42.874Z,14.93
2023-02-11T06:24:21.655Z,16.85
2023-02-11T06:26:56.408Z,11.05
2023-02-11T06:29:24.173Z,14.75
2023-02-11T06:31:51.934Z,16.48
2023-02-11T06:34:19.637Z,25.05
2023-02-11T06:36:47.525Z,13.23
2023-02-11T06:39:16.624Z,15.13
2023-02-11T06:41:44.443Z,18.77
2023-02-11T06:44:12.267Z,16.33
2023-02-11T06:46:40.051Z,17.40
2023-02-11T06:49:07.765Z,13.82
2023-02-11T06:51:35.478Z,11.90
2023-02-11T06:54:03.228Z,17.17
2023-02-11T06:56:32.337Z,25.88
2023-02-11T06:59:00.505Z,15.50
2023-02-11T07:01:29.094Z,17.65
2023-02-11T07:03:57.470Z,21.38
2023-02-11T07:06:28.096Z,19.63
2023-02-11T07:08:56.936Z,20.00
2023-02-11T07:11:26.887Z,24.70
2023-02-11T07:13:58.498Z,19.58
2023-02-11T07:16:26.351Z,24.92
2023-02-11T07:18:54.295Z,18.23
2023-02-11T07:21:24.776Z,23.33
2023-02-11T07:23:52.510Z,20.85
2023-02-11T07:26:23.005Z,19.45
2023-02-11T07:28:51.829Z,22.15
2023-02-11T07:31:23.417Z,19.98
2023-02-11T07:33:53.184Z,26.95
2023-02-11T07:36:21.374Z,22.05
2023-02-11T07:38:49.123Z,28.65
2023-02-11T07:41:19.435Z,24.05
2023-02-11T07:43:47.332Z,30.95
2023-02-11T07:46:16.946Z,23.25
2023-02-11T07:48:46.275Z,20.92
2023-02-11T07:51:16.455Z,27.02
2023-02-11T07:53:44.546Z,26.80
2023-02-11T07:56:13.706Z,34.15
2023-02-11T07:58:43.045Z,30.10
2023-02-11T08:01:12.867Z,44.40
2023-02-11T08:03:42.757Z,27.77
2023-02-11T08:06:13.320Z,30.90
2023-02-11T08:08:41.311Z,26.42
2023-02-11T08:11:09.894Z,29.65
2023-02-11T08:13:38.054Z,33.70
2023-02-11T08:16:06.979Z,32.15
2023-02-11T08:18:36.362Z,30.33
2023-02-11T08:21:07.932Z,33.28
2023-02-11T08:23:38.088Z,32.30
2023-02-11T08:26:07.357Z,32.85
2023-02-11T08:28:37.293Z,37.83
2023-02-11T08:31:07.697Z,33.28
2023-02-11T08:33:35.705Z,30.73
2023-02-11T08:36:08.548Z,40.08
2023-02-11T08:38:37.812Z,35.55
2023-02-11T08:41:06.319Z,33.35
2023-02-11T08:43:34.043Z,36.25
2023-02-11T08:46:02.578Z,35.22
2023-02-11T08:48:31.216Z,35.17
2023-02-11T08:50:59.152Z,38.53
2023-02-11T08:53:26.948Z,40.28
2023-02-11T08:55:58.748Z,32.75
2023-02-11T08:58:26.528Z,39.25
2023-02-11T09:00:54.533Z,35.15
2023-02-11T09:03:22.407Z,40.95
2023-02-11T09:05:53.129Z,39.67
2023-02-11T09:08:21.090Z,35.15
2023-02-11T09:10:49.296Z,41.08
2023-02-11T09:13:18.538Z,37.10
2023-02-11T09:15:47.457Z,37.15
2023-02-11T09:18:15.470Z,38.88
2023-02-11T09:20:43.393Z,39.92
2023-02-11T09:23:12.355Z,36.53
2023-02-11T09:25:40.476Z,41.08
2023-02-11T09:28:08.612Z,44.92
2023-02-11T09:30:39.433Z,40.85
2023-02-11T09:33:07.264Z,46.75
2023-02-11T09:35:35.270Z,49.25
2023-02-11T09:38:03.039Z,48.83
2023-02-11T09:40:30.941Z,50.92
2023-02-11T09:43:05.275Z,40.78
2023-02-11T09:45:33.741Z,46.97
2023-02-11T09:48:06.471Z,44.53
2023-02-11T09:50:36.730Z,42.33
2023-02-11T09:53:10.998Z,41.90
2023-02-11T09:55:42.763Z,40.97
2023-02-11T09:58:14.894Z,46.15
2023-02-11T10:00:48.987Z,42.42
2023-02-11T10:03:56.837Z,46.30
2023-02-11T10:06:43.125Z,46.85
2023-02-11T10:09:34.297Z,48.05
2023-02-11T10:12:16.283Z,42.55
2023-02-11T10:15:05.183Z,54.90
2023-02-11T10:17:39.813Z,48.47
2023-02-11T10:20:24.862Z,43.03
2023-02-11T10:22:55.749Z,45.70
2023-02-11T10:25:26.305Z,51.63
2023-02-11T10:27:58.090Z,52.00
2023-02-11T10:30:32.231Z,52.42
2023-02-11T10:33:04.805Z,49.28
2023-02-11T10:35:34.260Z,46.80
2023-02-11T10:38:02.022Z,47.67
2023-02-11T10:40:32.500Z,48.03
2023-02-11T10:43:04.555Z,54.50
2023-02-11T10:45:37.105Z,47.78
2023-02-11T10:48:07.096Z,47.20
2023-02-11T10:50:37.047Z,46.25
2023-02-11T10:53:14.555Z,46.30
2023-02-11T10:55:51.320Z,55.10
2023-02-11T10:58:26.627Z,56.40
2023-02-11T11:00:56.700Z,57.30
2023-02-11T11:03:26.312Z,55.70
2023-02-11T11:05:58.722Z,51.38
2023-02-11T11:08:40.765Z,44.08
2023-02-11T11:11:10.810Z,54.38
2023-02-11T11:13:39.741Z,47.33
2023-02-11T11:16:21.402Z,45.35
2023-02-11T11:18:50.910Z,49.97
2023-02-11T11:21:23.802Z,47.80
2023-02-11T11:23:55.516Z,39.40
2023-02-11T11:26:24.016Z,50.63
2023-02-11T11:28:56.137Z,45.63
2023-02-11T11:31:27.836Z,47.83
2023-02-11T11:33:59.615Z,50.72
2023-02-11T11:36:36.266Z,50.42
2023-02-11T11:39:16.618Z,45.10
2023-02-11T11:41:52.550Z,44.25
2023-02-11T11:44:26.131Z,47.17
2023-02-11T11:47:14.828Z,46.72
2023-02-11T11:49:49.829Z,49.97
2023-02-11T11:52:27.590Z,48.90
2023-02-11T11:55:02.889Z,44.42
2023-02-11T11:57:31.034Z,44.22
2023-02-11T11:59:59.410Z,41.22
2023-02-11T12:02:53.423Z,54.25
2023-02-11T12:05:29.334Z,42.67
2023-02-11T12:08:13.150Z,45.23
2023-02-11T12:11:00.923Z,46.97
2023-02-11T12:13:41.896Z,51.55
2023-02-11T12:16:27.301Z,43.03
2023-02-11T12:19:45.892Z,47.17
2023-02-11T12:22:22.830Z,40.72
2023-02-11T12:27:42.507Z,42.90
2023-02-11T12:30:24.100Z,49.70
2023-02-11T12:33:01.828Z,47.72
2023-02-11T12:35:37.888Z,56.95
2023-02-11T12:38:21.205Z,56.20
2023-02-11T12:41:02.739Z,48.47
2023-02-11T12:43:36.094Z,58.45
2023-02-11T12:46:24.356Z,50.78
2023-02-11T12:49:18.457Z,54.47
2023-02-11T12:52:02.196Z,49.45
2023-02-11T12:54:33.024Z,46.65
2023-02-11T12:57:07.258Z,50.65
2023-02-11T12:59:46.685Z,46.70
2023-02-11T13:02:25.317Z,49.28
2023-02-11T13:04:57.857Z,58.45
2023-02-11T13:07:32.149Z,50.55
2023-02-11T13:10:05.430Z,47.90
2023-02-11T13:12:53.920Z,52.90
2023-02-11T13:15:21.652Z,52.30
2023-02-11T13:18:01.096Z,58.80
2023-02-11T13:20:36.776Z,59.15
2023-02-11T13:23:12.637Z,50.97
2023-02-11T13:25:47.349Z,57.27
2023-02-11T13:28:34.813Z,54.13
2023-02-11T13:31:03.771Z,54.53
2023-02-11T13:33:33.935Z,51.88
2023-02-11T13:36:20.295Z,54.35
2023-02-11T13:39:00.884Z,53.42
2023-02-11T13:41:52.456Z,64.20
2023-02-11T13:44:26.179Z,56.22
2023-02-11T13:47:01.336Z,52.15
2023-02-11T13:49:36.343Z,57.90
2023-02-11T13:52:06.905Z,52.85
2023-02-11T13:54:38.088Z,55.70
2023-02-11T13:57:36.587Z,56.60
2023-02-11T14:00:27.770Z,49.50
2023-02-11T14:03:44.588Z,45.95
2023-02-11T14:06:33.061Z,53.33
2023-02-11T14:09:09.923Z,52.97
2023-02-11T14:14:19.922Z,50.33
2023-02-11T14:17:21.230Z,44.75
2023-02-11T14:19:50.421Z,47.58
2023-02-11T14:22:23.695Z,46.47
2023-02-11T14:24:55.484Z,48.20
2023-02-11T14:27:38.556Z,48.33
2023-02-11T14:30:25.339Z,47.35
2023-02-11T14:33:11.054Z,49.25
2023-02-11T14:35:48.718Z,45.97
2023-02-11T14:38:25.946Z,53.25
2023-02-11T14:41:02.720Z,44.00
2023-02-11T14:46:02.284Z,44.42
2023-02-11T14:48:32.624Z,43.83
2023-02-11T14:51:04.115Z,45.05
2023-02-11T14:53:34.747Z,43.08
2023-02-11T14:56:02.501Z,49.85
2023-02-11T14:58:31.769Z,47.03
2023-02-11T15:01:01.794Z,44.45
2023-02-11T15:03:34.272Z,48.30
2023-02-11T15:06:06.464Z,43.40
2023-02-11T15:08:38.267Z,43.30
2023-02-11T15:11:13.021Z,45.38
2023-02-11T15:13:47.481Z,46.58
2023-02-11T15:16:18.500Z,50.78
2023-02-11T15:18:52.496Z,44.25
2023-02-11T15:21:25.441Z,42.22
2023-02-11T15:23:58.165Z,42.75
2023-02-11T15:26:26.012Z,44.70
2023-02-11T15:28:53.785Z,39.53
2023-02-11T15:31:24.299Z,46.13
2023-02-11T15:33:54.588Z,46.58
2023-02-11T15:36:29.010Z,41.85
2023-02-11T15:39:19.622Z,47.72
2023-02-11T15:41:47.428Z,44.97
2023-02-11T15:44:33.159Z,42.47
2023-02-11T15:47:01.345Z,45.03
2023-02-11T15:49:30.479Z,44.42
2023-02-11T15:51:59.079Z,46.55
2023-02-11T15:54:31.547Z,46.60
2023-02-11T15:57:03.824Z,46.13
2023-02-11T15:59:35.495Z,41.38
2023-02-11T16:02:08.961Z,45.78
2023-02-11T16:04:38.766Z,42.92
2023-02-11T16:07:06.596Z,41.47
2023-02-11T16:09:36.121Z,42.15
2023-02-11T16:12:07.501Z,39.38
2023-02-11T16:14:39.311Z,42.35
2023-02-11T16:17:09.728Z,43.60
2023-02-11T16:19:44.852Z,47.47
2023-02-11T16:22:18.210Z,41.90
2023-02-11T16:24:49.032Z,45.35
2023-02-11T16:27:23.743Z,42.20
2023-02-11T16:29:52.148Z,44.90
2023-02-11T16:32:22.402Z,50.33
2023-02-11T16:34:52.376Z,41.47
2023-02-11T16:37:20.152Z,37.13
2023-02-11T16:39:47.972Z,44.97
2023-02-11T16:42:15.708Z,41.28
2023-02-11T16:44:43.454Z,37.75
2023-02-11T16:47:18.974Z,45.47
2023-02-11T16:49:46.772Z,39.65
2023-02-11T16:52:17.164Z,42.50
2023-02-11T16:54:45.340Z,36.95
2023-02-11T16:57:15.658Z,44.65
2023-02-11T16:59:43.515Z,41.08
2023-02-11T17:02:16.744Z,38.08
2023-02-11T17:04:45.240Z,40.15
2023-02-11T17:07:13.335Z,38.78
2023-02-11T17:09:42.505Z,43.65
2023-02-11T17:12:10.237Z,40.75
2023-02-11T17:14:37.986Z,41.70
2023-02-11T17:17:05.793Z,40.45
2023-02-11T17:19:33.538Z,40.95
2023-02-11T17:22:01.231Z,44.13
2023-02-11T17:24:29.024Z,41.67
2023-02-11T17:26:58.118Z,41.05
2023-02-11T17:29:26.671Z,43.63
2023-02-11T17:31:54.875Z,40.80
2023-02-11T17:34:23.828Z,43.65
2023-02-11T17:36:51.840Z,42.08
2023-02-11T17:39:21.093Z,41.05
2023-02-11T17:41:48.975Z,37.20
2023-02-11T17:44:18.071Z,44.47
2023-02-11T17:46:45.811Z,42.22
2023-02-11T17:49:13.760Z,40.47
2023-02-11T17:51:41.616Z,42.95
2023-02-11T17:54:12.136Z,35.80
2023-02-11T17:56:40.278Z,41.10
2023-02-11T17:59:09.390Z,38.35
2023-02-11T18:01:40.071Z,39.28
2023-02-11T18:04:09.902Z,42.53
2023-02-11T18:06:37.652Z,41.53
2023-02-11T18:09:05.484Z,38.10
2023-02-11T18:11:34.996Z,39.08
2023-02-11T18:14:04.558Z,40.30
2023-02-11T18:16:35.062Z,42.53
2023-02-11T18:19:04.746Z,40.58
2023-02-11T18:21:32.516Z,36.80
2023-02-11T18:24:05.974Z,41.40
2023-02-11T18:26:34.530Z,39.08
2023-02-11T18:29:03.782Z,35.78
2023-02-11T18:31:31.735Z,37.13
2023-02-11T18:33:59.579Z,41.60
2023-02-11T18:36:28.745Z,35.67
2023-02-11T18:38:58.078Z,37.60
2023-02-11T18:41:25.830Z,38.63
2023-02-11T18:43:54.114Z,42.10
2023-02-11T18:46:21.857Z,42.15
2023-02-11T18:48:50.133Z,41.65
2023-02-11T18:51:19.349Z,36.70
2023-02-11T18:53:48.450Z,38.22
2023-02-11T18:56:18.370Z,38.60
2023-02-11T18:58:46.179Z,42.97
2023-02-11T19:01:16.353Z,39.60
2023-02-11T19:03:44.520Z,36.80
2023-02-11T19:06:16.689Z,41.58
2023-02-11T19:08:44.479Z,38.95
2023-02-11T19:11:16.171Z,40.28
2023-02-11T19:13:43.906Z,36.05
2023-02-11T19:16:12.455Z,37.35
2023-02-11T19:18:40.203Z,38.00
2023-02-11T19:21:09.380Z,38.70
2023-02-11T19:23:37.532Z,41.13
2023-02-11T19:26:06.458Z,39.17
2023-02-11T19:28:37.187Z,38.42
2023-02-11T19:31:09.606Z,38.55
2023-02-11T19:33:38.007Z,39.92
2023-02-11T19:36:07.204Z,44.35
2023-02-11T19:38:35.256Z,35.88
2023-02-11T19:41:03.005Z,39.60
2023-02-11T19:43:30.840Z,40.65
2023-02-11T19:46:02.053Z,38.30
2023-02-11T19:48:30.090Z,40.20
2023-02-11T19:50:58.187Z,37.28
2023-02-11T19:53:25.964Z,39.53
2023-02-11T19:55:53.886Z,36.70
2023-02-11T19:58:21.795Z,40.22
2023-02-11T20:00:49.513Z,36.60
2023-02-11T20:03:18.658Z,33.95
2023-02-11T20:05:47.796Z,35.10
2023-02-11T20:08:17.023Z,39.53
2023-02-11T20:10:44.802Z,37.28
2023-02-11T20:13:12.508Z,35.53
2023-02-11T20:15:40.322Z,34.95
2023-02-11T20:18:08.171Z,38.45
2023-02-11T20:20:39.299Z,36.42
2023-02-11T20:23:07.003Z,35.67
2023-02-11T20:25:34.681Z,37.15
2023-02-11T20:28:02.440Z,35.30
2023-02-11T20:30:30.231Z,36.40
2023-02-11T20:32:58.517Z,36.00
2023-02-11T20:35:26.293Z,33.67
2023-02-11T20:37:55.410Z,33.67
2023-02-11T20:40:23.190Z,34.50
2023-02-11T20:42:50.897Z,31.98
2023-02-11T20:45:18.741Z,34.60
2023-02-11T20:47:46.439Z,35.70
2023-02-11T20:50:14.160Z,31.67
2023-02-11T20:52:41.904Z,38.70
2023-02-11T20:55:11.063Z,33.33
2023-02-11T20:57:38.820Z,34.67
2023-02-11T21:00:07.904Z,35.28
2023-02-11T21:02:35.668Z,33.90
2023-02-11T21:05:03.383Z,33.88
2023-02-11T21:07:31.384Z,34.67
2023-02-11T21:09:59.107Z,33.22
2023-02-11T21:12:28.175Z,36.47
2023-02-11T21:14:57.183Z,35.75
2023-02-11T21:17:26.359Z,33.88
2023-02-11T21:19:54.069Z,33.63
2023-02-11T21:22:21.809Z,29.35
2023-02-11T21:24:49.709Z,32.63
2023-02-11T21:27:17.469Z,30.42
2023-02-11T21:29:54.115Z,30.98
2023-02-11T21:32:22.511Z,27.33
2023-02-11T21:34:50.228Z,29.33
2023-02-11T21:37:17.929Z,33.67
2023-02-11T21:39:45.700Z,31.20
2023-02-11T21:42:13.490Z,26.40
2023-02-11T21:44:41.335Z,29.42
2023-02-11T21:47:10.467Z,28.00
2023-02-11T21:49:38.187Z,32.78
2023-02-11T21:52:06.021Z,29.08
2023-02-11T21:54:33.735Z,32.83
2023-02-11T21:57:03.135Z,29.52
2023-02-11T21:59:31.808Z,28.85
2023-02-11T22:01:59.890Z,28.15
2023-02-11T22:04:29.035Z,27.88
2023-02-11T22:06:56.881Z,30.27
2023-02-11T22:09:24.640Z,26.45
2023-02-11T22:11:53.639Z,29.33
2023-02-11T22:14:21.408Z,26.13
2023-02-11T22:16:49.297Z,29.15
2023-02-11T22:19:17.339Z,29.17
2023-02-11T22:21:46.480Z,26.92
2023-02-11T22:24:14.194Z,25.95
2023-02-11T22:26:41.966Z,24.63
2023-02-11T22:29:10.557Z,25.27
2023-02-11T22:31:38.440Z,24.33
2023-02-11T22:34:06.587Z,24.10
2023-02-11T22:36:35.762Z,26.65
2023-02-11T22:39:07.099Z,26.00
2023-02-11T22:41:35.116Z,25.27
2023-02-11T22:44:02.864Z,22.92
2023-02-11T22:46:30.868Z,21.70
2023-02-11T22:48:58.690Z,24.15
2023-02-11T22:51:28.168Z,23.83
2023-02-11T22:53:57.490Z,23.77
2023-02-11T22:56:27.946Z,21.33
2023-02-11T22:58:58.243Z,23.33
2023-02-11T23:01:25.978Z,20.48
2023-02-11T23:03:53.880Z,21.98
2023-02-11T23:06:22.531Z,22.27
2023-02-11T23:08:50.243Z,19.27
2023-02-11T23:11:21.080Z,22.35
2023-02-11T23:13:52.210Z,18.52
2023-02-11T23:16:22.364Z,20.00
2023-02-11T23:18:50.696Z,20.17
2023-02-11T23:21:21.153Z,18.75
2023-02-11T23:23:50.070Z,17.58
2023-02-11T23:26:19.109Z,16.55
2023-02-11T23:28:47.391Z,16.63
2023-02-11T23:31:18.993Z,15.88
2023-02-11T23:33:47.322Z,15.27
2023-02-11T23:36:15.896Z,18.33
2023-02-11T23:38:44.286Z,21.70
2023-02-11T23:41:12.438Z,17.85
2023-02-11T23:43:40.406Z,14.63
2023-02-11T23:46:09.320Z,19.15
2023-02-11T23:48:40.339Z,14.05
2023-02-11T23:51:09.604Z,18.00
2023-02-11T23:53:37.588Z,14.05
2023-02-11T23:56:09.070Z,14.68
2023-02-11T23:58:37.616Z,12.73
